createdAt,value
2023-03-06T00:01:01.134Z,74.05
2023-03-06T00:03:30.717Z,72.54
2023-03-06T00:06:00.404Z,75.33
2023-03-06T00:08:30.624Z,74.65
2023-03-06T00:11:00.917Z,75.47
2023-03-06T00:13:32.255Z,75.96
2023-03-06T00:16:03.292Z,74.65
2023-03-06T00:18:32.814Z,74.56
2023-03-06T00:21:02.196Z,79.29
2023-03-06T00:23:31.366Z,81.80
2023-03-06T00:26:00.986Z,82.97
2023-03-06T00:28:32.732Z,80.27
2023-03-06T00:31:04.428Z,80.19
2023-03-06T00:33:34.201Z,81.86
2023-03-06T00:36:05.956Z,83.13
2023-03-06T00:38:37.316Z,87.12
2023-03-06T00:41:11.054Z,86.59
2023-03-06T00:43:39.976Z,86.69
2023-03-06T00:46:12.114Z,91.19
2023-03-06T00:48:41.784Z,89.67
2023-03-06T00:51:13.868Z,100.00
2023-03-06T00:53:43.270Z,100.00
2023-03-06T00:56:12.961Z,100.00
2023-03-06T00:58:42.679Z,100.00
2023-03-06T01:01:13.017Z,100.00
2023-03-06T01:03:42.212Z,100.00
2023-03-06T01:06:11.507Z,100.00
2023-03-06T01:08:40.739Z,100.00
2023-03-06T01:11:10.009Z,100.00
2023-03-06T01:13:39.381Z,100.00
2023-03-06T01:16:10.336Z,100.00
2023-03-06T01:18:41.975Z,100.00
2023-03-06T01:21:11.399Z,100.00
2023-03-06T01:23:41.117Z,100.00
2023-03-06T01:26:10.380Z,100.00
2023-03-06T01:28:40.845Z,100.00
2023-03-06T01:31:11.775Z,100.00
2023-03-06T01:33:42.903Z,100.00
2023-03-06T01:36:13.931Z,100.00
2023-03-06T01:38:43.592Z,100.00
2023-03-06T01:41:15.895Z,100.00
2023-03-06T01:43:47.499Z,100.00
2023-03-06T01:46:38.870Z,100.00
2023-03-06T01:49:14.259Z,100.00
2023-03-06T01:51:50.442Z,100.00
2023-03-06T01:54:24.177Z,100.00
2023-03-06T01:56:57.875Z,100.00
2023-03-06T01:59:29.257Z,100.00
2023-03-06T02:02:01.967Z,100.00
2023-03-06T02:04:33.253Z,100.00
2023-03-06T02:07:04.880Z,100.00
2023-03-06T02:09:38.066Z,100.00
2023-03-06T02:12:11.269Z,100.00
2023-03-06T02:14:42.536Z,100.00
2023-03-06T02:17:13.472Z,100.00
2023-03-06T02:19:52.061Z,100.00
2023-03-06T02:22:22.080Z,100.00
2023-03-06T02:24:57.907Z,100.00
2023-03-06T02:27:29.064Z,100.00
2023-03-06T02:29:58.947Z,100.00
2023-03-06T02:32:28.195Z,100.00
2023-03-06T02:34:59.215Z,100.00
2023-03-06T02:37:30.719Z,100.00
2023-03-06T02:40:12.393Z,100.00
2023-03-06T02:42:48.566Z,100.00
2023-03-06T02:45:23.395Z,100.00
2023-03-06T02:47:53.876Z,100.00
2023-03-06T02:50:23.360Z,100.00
2023-03-06T02:52:52.669Z,100.00
2023-03-06T02:55:22.451Z,100.00
2023-03-06T02:57:53.231Z,100.00
2023-03-06T03:00:22.877Z,100.00
2023-03-06T03:02:52.796Z,100.00
2023-03-06T03:05:22.958Z,100.00
2023-03-06T03:07:59.864Z,100.00
2023-03-06T03:10:32.230Z,100.00
2023-03-06T03:13:03.613Z,100.00
2023-03-06T03:15:33.704Z,100.00
2023-03-06T03:18:03.084Z,100.00
2023-03-06T03:20:32.533Z,100.00
2023-03-06T03:23:02.010Z,100.00
2023-03-06T03:25:31.441Z,100.00
2023-03-06T03:28:02.292Z,100.00
2023-03-06T03:30:32.108Z,100.00
2023-03-06T03:33:02.125Z,100.00
2023-03-06T03:35:31.858Z,100.00
2023-03-06T03:38:02.271Z,100.00
2023-03-06T03:40:32.376Z,100.00
2023-03-06T03:43:04.025Z,100.00
2023-03-06T03:45:33.745Z,100.00
2023-03-06T03:48:03.489Z,100.00
2023-03-06T03:50:34.896Z,100.00
2023-03-06T03:53:04.710Z,100.00
2023-03-06T03:55:35.288Z,100.00
2023-03-06T03:58:09.077Z,100.00
2023-03-06T04:00:38.492Z,100.00
2023-03-06T04:03:14.143Z,100.00
2023-03-06T04:05:46.461Z,100.00
2023-03-06T04:08:18.562Z,100.00
2023-03-06T04:10:49.462Z,100.00
2023-03-06T04:13:22.160Z,100.00
2023-03-06T04:15:54.892Z,100.00
2023-03-06T04:18:25.624Z,100.00
2023-03-06T04:20:58.800Z,100.00
2023-03-06T04:23:28.560Z,100.00
2023-03-06T04:25:57.757Z,100.00
2023-03-06T04:28:28.951Z,100.00
2023-03-06T04:30:59.480Z,100.00
2023-03-06T04:33:29.052Z,100.00
2023-03-06T04:35:58.809Z,100.00
2023-03-06T04:38:32.047Z,100.00
2023-03-06T04:41:03.191Z,100.00
2023-03-06T04:43:34.150Z,100.00
2023-03-06T04:46:03.526Z,100.00
2023-03-06T04:48:33.355Z,100.00
2023-03-06T04:51:03.468Z,100.00
2023-03-06T04:53:33.400Z,100.00
2023-03-06T04:56:03.185Z,100.00
2023-03-06T04:58:33.809Z,100.00
2023-03-06T05:01:03.451Z,100.00
2023-03-06T05:03:32.915Z,100.00
2023-03-06T05:06:03.110Z,100.00
2023-03-06T05:08:32.929Z,100.00
2023-03-06T05:11:03.320Z,100.00
2023-03-06T05:13:34.080Z,100.00
2023-03-06T05:16:04.475Z,100.00
2023-03-06T05:18:34.602Z,100.00
2023-03-06T05:21:06.925Z,100.00
2023-03-06T05:23:38.935Z,100.00
2023-03-06T05:26:09.912Z,100.00
2023-03-06T05:28:45.861Z,100.00
2023-03-06T05:31:15.157Z,100.00
2023-03-06T05:33:44.718Z,100.00
2023-03-06T05:36:14.175Z,100.00
2023-03-06T05:38:43.452Z,100.00
2023-03-06T05:41:16.190Z,100.00
2023-03-06T05:43:47.109Z,100.00
2023-03-06T05:46:16.896Z,100.00
2023-03-06T05:48:46.936Z,100.00
2023-03-06T05:51:17.258Z,100.00
2023-03-06T05:53:50.445Z,100.00
2023-03-06T05:56:22.027Z,100.00
2023-03-06T05:58:53.428Z,100.00
2023-03-06T06:01:25.667Z,100.00
2023-03-06T06:03:56.100Z,100.00
2023-03-06T06:06:25.781Z,100.00
2023-03-06T06:09:27.081Z,100.00
2023-03-06T06:11:59.803Z,100.00
2023-03-06T06:14:33.692Z,100.00
2023-03-06T06:17:03.480Z,100.00
2023-03-06T06:19:34.100Z,100.00
2023-03-06T06:22:04.091Z,100.00
2023-03-06T06:24:33.873Z,100.00
2023-03-06T06:27:04.099Z,100.00
2023-03-06T06:29:35.122Z,100.00
2023-03-06T06:32:05.164Z,100.00
2023-03-06T06:34:34.886Z,100.00
2023-03-06T06:37:04.382Z,100.00
2023-03-06T06:39:34.556Z,100.00
2023-03-06T06:42:26.357Z,100.00
2023-03-06T06:44:55.069Z,100.00
2023-03-06T06:47:25.599Z,100.00
2023-03-06T06:49:57.477Z,100.00
2023-03-06T06:52:28.553Z,100.00
2023-03-06T06:54:58.369Z,100.00
2023-03-06T06:57:27.743Z,100.00
2023-03-06T07:00:01.581Z,100.00
2023-03-06T07:02:32.326Z,100.00
2023-03-06T07:05:05.314Z,100.00
2023-03-06T07:07:37.012Z,100.00
2023-03-06T07:10:08.368Z,100.00
2023-03-06T07:12:41.475Z,100.00
2023-03-06T07:15:13.851Z,100.00
2023-03-06T07:17:43.337Z,100.00
2023-03-06T07:20:13.444Z,100.00
2023-03-06T07:22:50.697Z,100.00
2023-03-06T07:25:22.943Z,100.00
2023-03-06T07:27:54.494Z,100.00
2023-03-06T07:30:27.747Z,100.00
2023-03-06T07:32:58.305Z,100.00
2023-03-06T07:35:28.496Z,100.00
2023-03-06T07:38:01.028Z,100.00
2023-03-06T07:40:31.339Z,100.00
2023-03-06T07:43:16.785Z,100.00
2023-03-06T07:46:01.994Z,100.00
2023-03-06T07:48:33.454Z,100.00
2023-03-06T07:51:06.005Z,100.00
2023-03-06T07:53:39.056Z,100.00
2023-03-06T07:56:11.253Z,100.00
2023-03-06T07:58:43.585Z,100.00
2023-03-06T08:01:19.817Z,94.87
2023-03-06T08:03:50.633Z,93.41
2023-03-06T08:06:21.555Z,100.00
2023-03-06T08:08:52.965Z,100.00
2023-03-06T08:11:24.108Z,100.00
2023-03-06T08:13:54.843Z,100.00
2023-03-06T08:16:28.760Z,100.00
2023-03-06T08:18:58.363Z,100.00
2023-03-06T08:21:30.355Z,100.00
2023-03-06T08:23:59.889Z,100.00
2023-03-06T08:26:33.271Z,100.00
2023-03-06T08:29:03.921Z,100.00
2023-03-06T08:31:37.340Z,99.61
2023-03-06T08:34:08.461Z,97.93
2023-03-06T08:36:38.065Z,100.00
2023-03-06T08:39:08.530Z,100.00
2023-03-06T08:41:38.864Z,100.00
2023-03-06T08:44:08.498Z,100.00
2023-03-06T08:46:40.131Z,100.00
2023-03-06T08:49:10.592Z,100.00
2023-03-06T08:51:40.402Z,100.00
2023-03-06T08:54:12.178Z,100.00
2023-03-06T08:56:41.686Z,100.00
2023-03-06T08:59:13.564Z,100.00
2023-03-06T09:01:45.359Z,100.00
2023-03-06T09:04:14.793Z,100.00
2023-03-06T09:06:45.341Z,97.58
2023-03-06T09:09:15.054Z,88.36
2023-03-06T09:11:44.736Z,76.56
2023-03-06T09:14:16.829Z,71.37
2023-03-06T09:16:47.747Z,68.66
2023-03-06T09:19:17.402Z,67.12
2023-03-06T09:21:47.087Z,81.38
2023-03-06T09:24:17.132Z,89.02
2023-03-06T09:26:48.801Z,90.44
2023-03-06T09:29:19.387Z,80.65
2023-03-06T09:31:51.600Z,74.65
2023-03-06T09:34:22.474Z,69.57
2023-03-06T09:36:57.068Z,62.35
2023-03-06T09:39:27.654Z,61.92
2023-03-06T09:41:59.301Z,60.63
2023-03-06T09:44:32.498Z,62.07
2023-03-06T09:47:27.660Z,64.60
2023-03-06T09:50:11.754Z,61.40
2023-03-06T09:52:47.728Z,69.05
2023-03-06T09:55:23.380Z,70.66
2023-03-06T09:57:57.180Z,64.59
2023-03-06T10:00:29.883Z,62.49
2023-03-06T10:03:09.403Z,61.93
2023-03-06T10:05:45.948Z,58.79
2023-03-06T10:08:24.563Z,54.92
2023-03-06T10:11:03.840Z,55.53
2023-03-06T10:13:40.161Z,53.33
2023-03-06T10:16:23.191Z,53.21
2023-03-06T10:18:55.046Z,51.59
2023-03-06T10:21:38.903Z,50.66
2023-03-06T10:24:23.081Z,51.86
2023-03-06T10:27:00.653Z,53.51
2023-03-06T10:29:56.379Z,54.01
2023-03-06T10:32:48.211Z,55.25
2023-03-06T10:35:30.713Z,54.64
2023-03-06T10:38:03.680Z,48.20
2023-03-06T10:40:44.476Z,42.87
2023-03-06T10:43:14.571Z,37.75
2023-03-06T10:45:51.599Z,35.30
2023-03-06T10:48:25.475Z,37.33
2023-03-06T10:51:18.505Z,33.93
2023-03-06T10:53:54.907Z,32.63
2023-03-06T10:56:35.511Z,32.01
2023-03-06T10:59:10.221Z,31.97
2023-03-06T11:01:40.785Z,29.38
2023-03-06T11:04:18.688Z,31.38
2023-03-06T11:06:49.854Z,30.94
2023-03-06T11:09:24.348Z,28.95
2023-03-06T11:11:54.257Z,29.81
2023-03-06T11:14:25.920Z,30.91
2023-03-06T11:16:57.015Z,30.75
2023-03-06T11:19:29.737Z,28.83
2023-03-06T11:22:06.129Z,29.24
2023-03-06T11:24:40.784Z,30.96
2023-03-06T11:27:24.953Z,29.91
2023-03-06T11:29:56.378Z,30.39
2023-03-06T11:32:30.967Z,28.53
2023-03-06T11:35:05.844Z,30.11
2023-03-06T11:37:52.212Z,26.31
2023-03-06T11:40:27.134Z,26.77
2023-03-06T11:43:04.308Z,27.18
2023-03-06T11:45:39.412Z,26.02
2023-03-06T11:48:23.340Z,24.97
2023-03-06T11:50:54.613Z,27.00
2023-03-06T11:53:31.709Z,24.72
2023-03-06T11:56:11.167Z,24.61
2023-03-06T11:59:03.240Z,26.38
2023-03-06T12:01:38.445Z,25.71
2023-03-06T12:04:47.114Z,27.21
2023-03-06T12:07:30.894Z,24.34
2023-03-06T12:10:14.689Z,25.39
2023-03-06T12:13:05.677Z,24.12
2023-03-06T12:15:55.708Z,26.61
2023-03-06T12:18:41.771Z,24.12
2023-03-06T12:21:19.494Z,24.65
2023-03-06T12:24:05.441Z,23.19
2023-03-06T12:26:56.875Z,26.08
2023-03-06T12:29:40.882Z,28.08
2023-03-06T12:32:17.072Z,25.59
2023-03-06T12:35:04.780Z,28.64
2023-03-06T12:37:47.750Z,26.39
2023-03-06T12:40:41.416Z,24.98
2023-03-06T12:43:29.746Z,22.85
2023-03-06T12:46:04.930Z,23.85
2023-03-06T12:48:37.851Z,23.01
2023-03-06T12:51:09.350Z,21.00
2023-03-06T12:53:41.054Z,21.01
2023-03-06T12:56:14.666Z,21.21
2023-03-06T12:58:53.634Z,20.41
2023-03-06T13:01:56.131Z,24.54
2023-03-06T13:04:58.567Z,25.03
2023-03-06T13:07:42.029Z,21.97
2023-03-06T13:10:23.379Z,24.85
2023-03-06T13:12:56.820Z,23.01
2023-03-06T13:15:44.314Z,29.55
2023-03-06T13:19:05.857Z,34.21
2023-03-06T13:22:02.657Z,27.35
2023-03-06T13:24:34.570Z,26.59
2023-03-06T13:27:09.531Z,24.98
2023-03-06T13:30:20.023Z,26.31
2023-03-06T13:32:52.895Z,26.63
2023-03-06T13:35:52.602Z,28.76
2023-03-06T13:38:36.967Z,27.89
2023-03-06T13:41:34.906Z,29.63
2023-03-06T13:44:30.929Z,29.87
2023-03-06T13:47:02.235Z,31.17
2023-03-06T13:49:34.538Z,32.93
2023-03-06T13:52:11.034Z,32.70
2023-03-06T13:54:55.468Z,28.92
2023-03-06T13:57:49.614Z,32.99
2023-03-06T14:00:48.394Z,31.84
2023-03-06T14:03:52.606Z,32.62
2023-03-06T14:07:01.458Z,33.56
2023-03-06T14:09:36.822Z,33.80
2023-03-06T14:12:14.574Z,34.02
2023-03-06T14:14:48.327Z,34.62
2023-03-06T14:17:23.223Z,35.28
2023-03-06T14:19:53.573Z,35.65
2023-03-06T14:22:26.444Z,35.54
2023-03-06T14:25:11.591Z,35.02
2023-03-06T14:27:49.266Z,36.10
2023-03-06T14:30:24.228Z,36.12
2023-03-06T14:32:56.657Z,35.89
2023-03-06T14:35:29.083Z,36.30
2023-03-06T14:38:01.046Z,36.33
2023-03-06T14:40:35.240Z,36.59
2023-03-06T14:43:19.398Z,36.06
2023-03-06T14:45:57.236Z,36.73
2023-03-06T14:48:28.639Z,37.56
2023-03-06T14:50:58.854Z,38.42
2023-03-06T14:53:31.684Z,37.72
2023-03-06T14:56:06.411Z,37.57
2023-03-06T14:58:39.956Z,36.99
2023-03-06T15:01:13.385Z,37.08
2023-03-06T15:03:45.796Z,38.25
2023-03-06T15:06:21.927Z,38.64
2023-03-06T15:09:00.170Z,39.08
2023-03-06T15:11:57.066Z,39.50
2023-03-06T15:14:33.419Z,40.06
2023-03-06T15:17:26.673Z,39.59
2023-03-06T15:19:57.611Z,39.82
2023-03-06T15:22:33.627Z,40.41
2023-03-06T15:25:59.981Z,40.03
2023-03-06T15:28:37.221Z,40.58
2023-03-06T15:31:19.947Z,41.35
2023-03-06T15:34:25.290Z,41.62
2023-03-06T15:36:57.136Z,41.93
2023-03-06T15:39:38.333Z,42.79
2023-03-06T15:42:29.285Z,44.81
2023-03-06T15:45:05.669Z,45.39
2023-03-06T15:47:34.930Z,46.67
2023-03-06T15:50:04.544Z,48.24
2023-03-06T15:52:34.220Z,49.37
2023-03-06T15:55:03.614Z,48.87
2023-03-06T15:57:39.436Z,50.63
2023-03-06T16:00:27.060Z,51.05
2023-03-06T16:02:58.684Z,51.30
2023-03-06T16:05:29.928Z,52.84
2023-03-06T16:07:59.961Z,52.18
2023-03-06T16:10:32.211Z,51.61
2023-03-06T16:13:06.427Z,52.23
2023-03-06T16:15:40.158Z,52.83
2023-03-06T16:18:13.737Z,54.17
2023-03-06T16:20:51.249Z,55.45
2023-03-06T16:23:22.234Z,56.35
2023-03-06T16:25:52.524Z,57.41
2023-03-06T16:28:22.780Z,57.31
2023-03-06T16:30:54.822Z,57.46
2023-03-06T16:33:24.710Z,59.25
2023-03-06T16:35:54.215Z,59.90
2023-03-06T16:38:23.836Z,59.09
2023-03-06T16:40:52.900Z,57.96
2023-03-06T16:43:22.288Z,57.04
2023-03-06T16:45:52.026Z,57.12
2023-03-06T16:48:24.562Z,56.68
2023-03-06T16:50:54.946Z,56.13
2023-03-06T16:53:24.555Z,56.88
2023-03-06T16:55:54.229Z,57.61
2023-03-06T16:58:26.020Z,57.42
2023-03-06T17:00:55.912Z,58.83
2023-03-06T17:03:31.058Z,58.82
2023-03-06T17:06:00.840Z,59.54
2023-03-06T17:08:30.952Z,59.35
2023-03-06T17:11:00.791Z,59.88
2023-03-06T17:13:30.334Z,60.22
2023-03-06T17:16:02.212Z,60.38
2023-03-06T17:18:34.537Z,60.16
2023-03-06T17:21:04.621Z,60.41
2023-03-06T17:23:34.523Z,61.61
2023-03-06T17:26:06.116Z,60.94
2023-03-06T17:28:36.484Z,61.84
2023-03-06T17:31:13.610Z,63.85
2023-03-06T17:33:45.020Z,65.44
2023-03-06T17:36:16.596Z,65.94
2023-03-06T17:38:46.617Z,67.88
2023-03-06T17:41:17.380Z,69.20
2023-03-06T17:43:47.074Z,70.12
2023-03-06T17:46:18.516Z,71.26
2023-03-06T17:48:49.675Z,73.65
2023-03-06T17:51:19.561Z,76.71
2023-03-06T17:53:52.393Z,77.09
2023-03-06T17:56:23.776Z,80.61
2023-03-06T17:58:54.290Z,82.01
2023-03-06T18:01:27.489Z,86.42
2023-03-06T18:04:02.931Z,87.42
2023-03-06T18:06:33.661Z,92.41
2023-03-06T18:09:03.949Z,94.30
2023-03-06T18:11:33.585Z,95.24
2023-03-06T18:14:05.272Z,96.56
2023-03-06T18:16:35.135Z,99.92
2023-03-06T18:19:05.768Z,100.00
2023-03-06T18:21:35.142Z,100.00
2023-03-06T18:24:05.420Z,100.00
2023-03-06T18:26:35.931Z,100.00
2023-03-06T18:29:07.083Z,100.00
2023-03-06T18:31:40.125Z,100.00
2023-03-06T18:34:13.542Z,100.00
2023-03-06T18:36:47.296Z,100.00
2023-03-06T18:39:17.626Z,100.00
2023-03-06T18:41:48.343Z,100.00
2023-03-06T18:44:19.018Z,100.00
2023-03-06T18:46:51.304Z,100.00
2023-03-06T18:49:25.810Z,100.00
2023-03-06T18:51:57.054Z,100.00
2023-03-06T18:54:29.780Z,100.00
2023-03-06T18:57:01.032Z,100.00
2023-03-06T18:59:31.380Z,100.00
2023-03-06T19:02:01.126Z,100.00
2023-03-06T19:04:32.721Z,100.00
2023-03-06T19:07:03.259Z,100.00
2023-03-06T19:09:34.011Z,100.00
2023-03-06T19:12:04.518Z,100.00
2023-03-06T19:14:36.419Z,100.00
2023-03-06T19:17:06.311Z,100.00
2023-03-06T19:19:37.142Z,100.00
2023-03-06T19:22:07.465Z,100.00
2023-03-06T19:24:37.787Z,100.00
2023-03-06T19:27:07.665Z,100.00
2023-03-06T19:29:38.673Z,100.00
2023-03-06T19:32:09.228Z,100.00
2023-03-06T19:34:40.525Z,100.00
2023-03-06T19:37:11.049Z,100.00
2023-03-06T19:39:40.759Z,100.00
2023-03-06T19:42:12.810Z,100.00
2023-03-06T19:44:43.487Z,100.00
2023-03-06T19:47:13.292Z,100.00
2023-03-06T19:49:44.643Z,100.00
2023-03-06T19:52:14.974Z,100.00
2023-03-06T19:54:47.125Z,100.00
2023-03-06T19:57:17.544Z,100.00
2023-03-06T19:59:51.864Z,100.00
2023-03-06T20:02:26.631Z,100.00
2023-03-06T20:04:58.188Z,100.00
2023-03-06T20:07:27.789Z,100.00
2023-03-06T20:10:00.866Z,100.00
2023-03-06T20:12:32.165Z,100.00
2023-03-06T20:15:02.207Z,100.00
2023-03-06T20:17:39.796Z,100.00
2023-03-06T20:20:12.590Z,100.00
2023-03-06T20:22:42.936Z,100.00
2023-03-06T20:25:28.702Z,100.00
2023-03-06T20:27:58.926Z,100.00
2023-03-06T20:30:37.784Z,100.00
2023-03-06T20:33:08.456Z,100.00
2023-03-06T20:35:43.920Z,100.00
2023-03-06T20:38:13.696Z,100.00
2023-03-06T20:40:44.529Z,100.00
2023-03-06T20:43:16.957Z,100.00
2023-03-06T20:45:57.288Z,100.00
2023-03-06T20:48:26.838Z,100.00
2023-03-06T20:51:06.082Z,100.00
2023-03-06T20:53:36.472Z,100.00
2023-03-06T20:56:06.642Z,100.00
2023-03-06T20:58:38.725Z,100.00
2023-03-06T21:01:08.651Z,100.00
2023-03-06T21:03:40.722Z,100.00
2023-03-06T21:06:11.442Z,100.00
2023-03-06T21:08:41.265Z,100.00
2023-03-06T21:11:10.679Z,100.00
2023-03-06T21:13:40.630Z,100.00
2023-03-06T21:16:22.004Z,100.00
2023-03-06T21:18:52.300Z,100.00
2023-03-06T21:21:25.348Z,100.00
2023-03-06T21:23:58.637Z,100.00
2023-03-06T21:26:30.871Z,100.00
2023-03-06T21:29:06.613Z,100.00
2023-03-06T21:31:36.190Z,100.00
2023-03-06T21:34:06.631Z,100.00
2023-03-06T21:36:43.159Z,100.00
2023-03-06T21:39:14.033Z,100.00
2023-03-06T21:41:46.722Z,100.00
2023-03-06T21:44:19.746Z,100.00
2023-03-06T21:46:51.893Z,100.00
2023-03-06T21:49:23.108Z,100.00
2023-03-06T21:51:53.881Z,100.00
2023-03-06T21:54:23.753Z,100.00
2023-03-06T21:56:57.002Z,100.00
2023-03-06T21:59:27.233Z,100.00
2023-03-06T22:01:57.098Z,100.00
2023-03-06T22:04:26.902Z,100.00
2023-03-06T22:06:57.567Z,100.00
2023-03-06T22:09:27.293Z,100.00
2023-03-06T22:11:57.598Z,100.00
2023-03-06T22:14:26.905Z,100.00
2023-03-06T22:16:56.833Z,100.00
2023-03-06T22:19:27.136Z,100.00
2023-03-06T22:21:57.963Z,100.00
2023-03-06T22:24:28.353Z,100.00
2023-03-06T22:26:58.019Z,100.00
2023-03-06T22:29:27.799Z,100.00
2023-03-06T22:31:57.581Z,100.00
2023-03-06T22:34:28.540Z,100.00
2023-03-06T22:36:59.123Z,100.00
2023-03-06T22:39:29.468Z,100.00
2023-03-06T22:41:59.203Z,100.00
2023-03-06T22:44:29.045Z,100.00
2023-03-06T22:46:58.378Z,100.00
2023-03-06T22:49:30.496Z,100.00
2023-03-06T22:52:01.023Z,100.00
2023-03-06T22:54:30.593Z,100.00
2023-03-06T22:56:59.832Z,100.00
2023-03-06T22:59:29.345Z,100.00
2023-03-06T23:01:58.548Z,100.00
2023-03-06T23:04:27.979Z,100.00
2023-03-06T23:07:00.223Z,100.00
2023-03-06T23:09:30.594Z,100.00
2023-03-06T23:12:18.317Z,100.00
2023-03-06T23:15:06.817Z,100.00
2023-03-06T23:17:54.585Z,100.00
2023-03-06T23:20:43.889Z,100.00
2023-03-06T23:23:31.976Z,100.00
2023-03-06T23:26:03.839Z,100.00
2023-03-06T23:28:33.461Z,100.00
2023-03-06T23:31:08.151Z,100.00
2023-03-06T23:33:38.861Z,100.00
2023-03-06T23:36:10.282Z,100.00
2023-03-06T23:38:40.654Z,100.00
2023-03-06T23:41:14.113Z,100.00
2023-03-06T23:43:43.924Z,100.00
2023-03-06T23:46:13.404Z,100.00
2023-03-06T23:48:43.786Z,100.00
2023-03-06T23:51:15.617Z,100.00
2023-03-06T23:53:45.050Z,100.00
2023-03-06T23:56:16.593Z,100.00
2023-03-06T23:58:46.517Z,100.00
